Valley City, Illinois
Current Conditions -  °F | °C
As of 9:15 PM on Monday 20 Oct 2014 (Local Time) from KPPQ Reporting Station
Clear Clear  
Wind Chill: 12°   Ceiling: Unl
Heat Index: 12°   Visibility: 10mi
Dew Point:   Wind: 3mph
Humidity: 74%   Direction: 280°W
Pressure: 30.03"   Gusts: NA
Location:  39.7046°N, 90.7176°W
Report Text: KPPQ 210215Z AUTO 28003KT 10SM CLR 12/07 A3003 RMK AO2 T01180073
Loading
Personal Weather Stations






























Interactive Weather Map
Tropical Storm Tracking
New forecast layout! Learn more

10-Day Weather Forecast

Advertisements
Track Severe Weather on mobile